sensor_id;sensor_type;location;lat;lon;timestamp;temperature;humidity
71082;SHT31;58740;50.672;18.690;2023-04-08T00:00:06;3.88;81.81
71082;SHT31;58740;50.672;18.690;2023-04-08T00:02:55;3.85;81.57
71082;SHT31;58740;50.672;18.690;2023-04-08T00:05:23;3.81;81.50
71082;SHT31;58740;50.672;18.690;2023-04-08T00:07:51;3.81;81.51
71082;SHT31;58740;50.672;18.690;2023-04-08T00:10:18;3.81;81.60
71082;SHT31;58740;50.672;18.690;2023-04-08T00:12:46;3.80;81.40
71082;SHT31;58740;50.672;18.690;2023-04-08T00:15:15;3.78;81.29
71082;SHT31;58740;50.672;18.690;2023-04-08T00:17:42;3.76;81.39
71082;SHT31;58740;50.672;18.690;2023-04-08T00:20:11;3.73;81.30
71082;SHT31;58740;50.672;18.690;2023-04-08T00:22:39;3.70;81.49
71082;SHT31;58740;50.672;18.690;2023-04-08T00:25:07;3.67;81.64
71082;SHT31;58740;50.672;18.690;2023-04-08T00:27:36;3.68;81.80
71082;SHT31;58740;50.672;18.690;2023-04-08T00:30:04;3.67;81.96
71082;SHT31;58740;50.672;18.690;2023-04-08T00:32:33;3.67;81.76
71082;SHT31;58740;50.672;18.690;2023-04-08T00:35:00;3.65;81.90
71082;SHT31;58740;50.672;18.690;2023-04-08T00:37:29;3.64;82.04
71082;SHT31;58740;50.672;18.690;2023-04-08T00:39:57;3.65;82.14
71082;SHT31;58740;50.672;18.690;2023-04-08T00:42:25;3.65;82.19
71082;SHT31;58740;50.672;18.690;2023-04-08T00:44:53;3.66;82.19
71082;SHT31;58740;50.672;18.690;2023-04-08T00:47:21;3.66;82.17
71082;SHT31;58740;50.672;18.690;2023-04-08T00:49:48;3.68;82.18
71082;SHT31;58740;50.672;18.690;2023-04-08T00:52:16;3.68;82.13
71082;SHT31;58740;50.672;18.690;2023-04-08T00:54:44;3.70;82.18
71082;SHT31;58740;50.672;18.690;2023-04-08T00:57:12;3.70;82.08
71082;SHT31;58740;50.672;18.690;2023-04-08T00:59:40;3.70;82.00
71082;SHT31;58740;50.672;18.690;2023-04-08T01:02:21;3.71;81.91
71082;SHT31;58740;50.672;18.690;2023-04-08T01:05:00;3.72;81.95
71082;SHT31;58740;50.672;18.690;2023-04-08T01:07:33;3.73;81.95
71082;SHT31;58740;50.672;18.690;2023-04-08T01:10:27;3.75;81.87
71082;SHT31;58740;50.672;18.690;2023-04-08T01:13:03;3.74;81.64
71082;SHT31;58740;50.672;18.690;2023-04-08T01:15:36;3.72;81.59
71082;SHT31;58740;50.672;18.690;2023-04-08T01:18:09;3.72;81.40
71082;SHT31;58740;50.672;18.690;2023-04-08T01:20:40;3.71;81.26
71082;SHT31;58740;50.672;18.690;2023-04-08T01:23:24;3.70;81.26
71082;SHT31;58740;50.672;18.690;2023-04-08T01:26:21;3.70;81.29
71082;SHT31;58740;50.672;18.690;2023-04-08T01:28:53;3.71;81.34
71082;SHT31;58740;50.672;18.690;2023-04-08T01:31:27;3.72;81.18
71082;SHT31;58740;50.672;18.690;2023-04-08T01:33:57;3.71;80.78
71082;SHT31;58740;50.672;18.690;2023-04-08T01:36:30;3.69;80.70
71082;SHT31;58740;50.672;18.690;2023-04-08T01:39:02;3.67;80.82
71082;SHT31;58740;50.672;18.690;2023-04-08T01:41:33;3.68;80.96
71082;SHT31;58740;50.672;18.690;2023-04-08T01:44:03;3.70;80.94
71082;SHT31;58740;50.672;18.690;2023-04-08T01:46:32;3.72;80.81
71082;SHT31;58740;50.672;18.690;2023-04-08T01:49:01;3.71;80.70
71082;SHT31;58740;50.672;18.690;2023-04-08T01:51:29;3.72;80.81
71082;SHT31;58740;50.672;18.690;2023-04-08T01:53:59;3.72;80.70
71082;SHT31;58740;50.672;18.690;2023-04-08T01:56:28;3.71;80.68
71082;SHT31;58740;50.672;18.690;2023-04-08T01:59:01;3.69;80.68
71082;SHT31;58740;50.672;18.690;2023-04-08T02:01:38;3.66;80.69
71082;SHT31;58740;50.672;18.690;2023-04-08T02:04:09;3.64;80.56
71082;SHT31;58740;50.672;18.690;2023-04-08T02:06:37;3.62;80.59
71082;SHT31;58740;50.672;18.690;2023-04-08T02:09:05;3.61;80.73
71082;SHT31;58740;50.672;18.690;2023-04-08T02:11:34;3.59;80.76
71082;SHT31;58740;50.672;18.690;2023-04-08T02:14:01;3.57;80.69
71082;SHT31;58740;50.672;18.690;2023-04-08T02:16:33;3.54;80.58
71082;SHT31;58740;50.672;18.690;2023-04-08T02:20:04;3.51;80.69
71082;SHT31;58740;50.672;18.690;2023-04-08T02:25:33;3.46;80.51
71082;SHT31;58740;50.672;18.690;2023-04-08T02:28:08;3.42;80.20
71082;SHT31;58740;50.672;18.690;2023-04-08T02:30:40;3.37;80.09
71082;SHT31;58740;50.672;18.690;2023-04-08T02:33:11;3.32;79.81
71082;SHT31;58740;50.672;18.690;2023-04-08T02:35:42;3.27;79.75
71082;SHT31;58740;50.672;18.690;2023-04-08T02:38:12;3.25;79.86
71082;SHT31;58740;50.672;18.690;2023-04-08T02:40:40;3.22;79.87
71082;SHT31;58740;50.672;18.690;2023-04-08T02:43:08;3.22;79.97
71082;SHT31;58740;50.672;18.690;2023-04-08T02:45:40;3.21;80.08
71082;SHT31;58740;50.672;18.690;2023-04-08T02:48:09;3.22;80.19
71082;SHT31;58740;50.672;18.690;2023-04-08T02:50:37;3.21;80.32
71082;SHT31;58740;50.672;18.690;2023-04-08T02:53:07;3.19;80.05
71082;SHT31;58740;50.672;18.690;2023-04-08T02:55:36;3.20;80.28
71082;SHT31;58740;50.672;18.690;2023-04-08T02:58:04;3.19;80.14
71082;SHT31;58740;50.672;18.690;2023-04-08T03:00:32;3.16;79.96
71082;SHT31;58740;50.672;18.690;2023-04-08T03:02:59;3.13;79.76
71082;SHT31;58740;50.672;18.690;2023-04-08T03:05:28;3.08;79.68
71082;SHT31;58740;50.672;18.690;2023-04-08T03:07:56;3.07;79.89
71082;SHT31;58740;50.672;18.690;2023-04-08T03:10:24;3.06;79.90
71082;SHT31;58740;50.672;18.690;2023-04-08T03:12:52;3.04;80.05
71082;SHT31;58740;50.672;18.690;2023-04-08T03:15:19;3.04;80.08
71082;SHT31;58740;50.672;18.690;2023-04-08T03:17:47;3.05;80.16
71082;SHT31;58740;50.672;18.690;2023-04-08T03:20:15;3.05;79.95
71082;SHT31;58740;50.672;18.690;2023-04-08T03:22:43;3.00;79.93
71082;SHT31;58740;50.672;18.690;2023-04-08T03:25:10;2.98;80.10
71082;SHT31;58740;50.672;18.690;2023-04-08T03:27:38;2.98;80.29
71082;SHT31;58740;50.672;18.690;2023-04-08T03:30:06;2.99;80.41
71082;SHT31;58740;50.672;18.690;2023-04-08T03:32:34;3.04;80.54
71082;SHT31;58740;50.672;18.690;2023-04-08T03:35:03;3.07;80.55
71082;SHT31;58740;50.672;18.690;2023-04-08T03:37:32;3.09;80.45
71082;SHT31;58740;50.672;18.690;2023-04-08T03:40:00;3.09;80.46
71082;SHT31;58740;50.672;18.690;2023-04-08T03:42:28;3.08;80.24
71082;SHT31;58740;50.672;18.690;2023-04-08T03:44:55;3.07;80.29
71082;SHT31;58740;50.672;18.690;2023-04-08T03:47:23;3.06;80.30
71082;SHT31;58740;50.672;18.690;2023-04-08T03:49:52;3.06;80.34
71082;SHT31;58740;50.672;18.690;2023-04-08T03:52:21;3.06;80.32
71082;SHT31;58740;50.672;18.690;2023-04-08T03:54:50;3.05;80.45
71082;SHT31;58740;50.672;18.690;2023-04-08T03:57:18;3.05;80.49
71082;SHT31;58740;50.672;18.690;2023-04-08T03:59:46;3.02;80.37
71082;SHT31;58740;50.672;18.690;2023-04-08T04:02:14;3.00;80.44
71082;SHT31;58740;50.672;18.690;2023-04-08T04:04:42;3.00;80.53
71082;SHT31;58740;50.672;18.690;2023-04-08T04:07:10;3.00;80.59
71082;SHT31;58740;50.672;18.690;2023-04-08T04:09:37;3.00;80.51
71082;SHT31;58740;50.672;18.690;2023-04-08T04:12:05;2.98;80.44
71082;SHT31;58740;50.672;18.690;2023-04-08T04:14:32;2.98;80.52
71082;SHT31;58740;50.672;18.690;2023-04-08T04:17:00;3.00;80.56
71082;SHT31;58740;50.672;18.690;2023-04-08T04:19:31;3.01;80.54
71082;SHT31;58740;50.672;18.690;2023-04-08T04:21:58;3.01;80.61
71082;SHT31;58740;50.672;18.690;2023-04-08T04:24:26;3.00;80.71
71082;SHT31;58740;50.672;18.690;2023-04-08T04:26:54;3.01;80.70
71082;SHT31;58740;50.672;18.690;2023-04-08T04:29:22;3.02;80.67
71082;SHT31;58740;50.672;18.690;2023-04-08T04:31:50;3.05;80.74
71082;SHT31;58740;50.672;18.690;2023-04-08T04:34:18;3.05;80.66
71082;SHT31;58740;50.672;18.690;2023-04-08T04:36:45;3.02;80.62
71082;SHT31;58740;50.672;18.690;2023-04-08T04:39:13;3.00;80.68
71082;SHT31;58740;50.672;18.690;2023-04-08T04:41:41;2.98;80.65
71082;SHT31;58740;50.672;18.690;2023-04-08T04:44:10;2.98;80.67
71082;SHT31;58740;50.672;18.690;2023-04-08T04:46:38;3.00;80.80
71082;SHT31;58740;50.672;18.690;2023-04-08T04:49:06;3.02;80.80
71082;SHT31;58740;50.672;18.690;2023-04-08T04:51:33;3.06;80.71
71082;SHT31;58740;50.672;18.690;2023-04-08T04:54:01;3.07;80.70
71082;SHT31;58740;50.672;18.690;2023-04-08T04:56:29;3.06;80.60
71082;SHT31;58740;50.672;18.690;2023-04-08T04:58:57;3.06;80.61
71082;SHT31;58740;50.672;18.690;2023-04-08T05:01:25;3.07;80.66
71082;SHT31;58740;50.672;18.690;2023-04-08T05:03:52;3.07;80.72
71082;SHT31;58740;50.672;18.690;2023-04-08T05:06:21;3.08;80.72
71082;SHT31;58740;50.672;18.690;2023-04-08T05:08:50;3.09;80.78
71082;SHT31;58740;50.672;18.690;2023-04-08T05:11:18;3.10;80.87
71082;SHT31;58740;50.672;18.690;2023-04-08T05:13:48;3.11;80.84
71082;SHT31;58740;50.672;18.690;2023-04-08T05:16:16;3.13;80.89
71082;SHT31;58740;50.672;18.690;2023-04-08T05:18:45;3.15;80.79
71082;SHT31;58740;50.672;18.690;2023-04-08T05:21:12;3.18;80.87
71082;SHT31;58740;50.672;18.690;2023-04-08T05:23:40;3.20;80.89
71082;SHT31;58740;50.672;18.690;2023-04-08T05:26:08;3.19;80.92
71082;SHT31;58740;50.672;18.690;2023-04-08T05:28:36;3.19;80.90
71082;SHT31;58740;50.672;18.690;2023-04-08T05:31:03;3.22;80.96
71082;SHT31;58740;50.672;18.690;2023-04-08T05:33:31;3.26;80.91
71082;SHT31;58740;50.672;18.690;2023-04-08T05:35:59;3.29;80.91
71082;SHT31;58740;50.672;18.690;2023-04-08T05:38:27;3.30;80.90
71082;SHT31;58740;50.672;18.690;2023-04-08T05:40:54;3.32;80.91
71082;SHT31;58740;50.672;18.690;2023-04-08T05:43:22;3.33;80.96
71082;SHT31;58740;50.672;18.690;2023-04-08T05:45:50;3.33;80.94
71082;SHT31;58740;50.672;18.690;2023-04-08T05:48:18;3.36;80.95
71082;SHT31;58740;50.672;18.690;2023-04-08T05:50:45;3.38;80.95
71082;SHT31;58740;50.672;18.690;2023-04-08T05:53:14;3.42;80.90
71082;SHT31;58740;50.672;18.690;2023-04-08T05:55:42;3.46;80.90
71082;SHT31;58740;50.672;18.690;2023-04-08T05:58:10;3.50;80.90
71082;SHT31;58740;50.672;18.690;2023-04-08T06:00:37;3.54;80.84
71082;SHT31;58740;50.672;18.690;2023-04-08T06:03:05;3.60;80.74
71082;SHT31;58740;50.672;18.690;2023-04-08T06:05:33;3.63;80.80
71082;SHT31;58740;50.672;18.690;2023-04-08T06:08:01;3.66;80.71
71082;SHT31;58740;50.672;18.690;2023-04-08T06:10:29;3.67;80.76
71082;SHT31;58740;50.672;18.690;2023-04-08T06:12:57;3.69;80.81
71082;SHT31;58740;50.672;18.690;2023-04-08T06:15:24;3.70;80.72
71082;SHT31;58740;50.672;18.690;2023-04-08T06:17:52;3.71;80.81
71082;SHT31;58740;50.672;18.690;2023-04-08T06:20:20;3.74;80.86
71082;SHT31;58740;50.672;18.690;2023-04-08T06:22:48;3.77;80.80
71082;SHT31;58740;50.672;18.690;2023-04-08T06:25:15;3.80;80.76
71082;SHT31;58740;50.672;18.690;2023-04-08T06:27:44;3.84;80.76
71082;SHT31;58740;50.672;18.690;2023-04-08T06:30:11;3.87;80.70
71082;SHT31;58740;50.672;18.690;2023-04-08T06:32:39;3.90;80.63
71082;SHT31;58740;50.672;18.690;2023-04-08T06:35:07;3.92;80.60
71082;SHT31;58740;50.672;18.690;2023-04-08T06:37:35;3.95;80.52
71082;SHT31;58740;50.672;18.690;2023-04-08T06:40:05;3.98;80.40
71082;SHT31;58740;50.672;18.690;2023-04-08T06:42:33;4.01;80.28
71082;SHT31;58740;50.672;18.690;2023-04-08T06:45:02;4.01;79.84
71082;SHT31;58740;50.672;18.690;2023-04-08T06:47:31;4.05;79.84
71082;SHT31;58740;50.672;18.690;2023-04-08T06:49:58;4.07;80.00
71082;SHT31;58740;50.672;18.690;2023-04-08T06:52:26;4.08;79.92
71082;SHT31;58740;50.672;18.690;2023-04-08T06:54:54;4.09;79.86
71082;SHT31;58740;50.672;18.690;2023-04-08T06:57:22;4.10;79.77
71082;SHT31;58740;50.672;18.690;2023-04-08T06:59:50;4.11;79.72
71082;SHT31;58740;50.672;18.690;2023-04-08T07:02:20;4.15;79.73
71082;SHT31;58740;50.672;18.690;2023-04-08T07:04:49;4.17;79.62
71082;SHT31;58740;50.672;18.690;2023-04-08T07:07:17;4.20;79.52
71082;SHT31;58740;50.672;18.690;2023-04-08T07:09:45;4.23;79.63
71082;SHT31;58740;50.672;18.690;2023-04-08T07:12:13;4.27;79.66
71082;SHT31;58740;50.672;18.690;2023-04-08T07:14:40;4.33;79.73
71082;SHT31;58740;50.672;18.690;2023-04-08T07:17:08;4.40;79.41
71082;SHT31;58740;50.672;18.690;2023-04-08T07:19:36;4.44;79.00
71082;SHT31;58740;50.672;18.690;2023-04-08T07:22:05;4.50;79.03
71082;SHT31;58740;50.672;18.690;2023-04-08T07:24:32;4.55;79.10
71082;SHT31;58740;50.672;18.690;2023-04-08T07:27:00;4.59;79.02
71082;SHT31;58740;50.672;18.690;2023-04-08T07:29:28;4.60;78.83
71082;SHT31;58740;50.672;18.690;2023-04-08T07:31:56;4.61;78.27
71082;SHT31;58740;50.672;18.690;2023-04-08T07:34:24;4.63;78.46
71082;SHT31;58740;50.672;18.690;2023-04-08T07:36:51;4.69;78.59
71082;SHT31;58740;50.672;18.690;2023-04-08T07:39:19;4.72;78.37
71082;SHT31;58740;50.672;18.690;2023-04-08T07:41:47;4.75;78.45
71082;SHT31;58740;50.672;18.690;2023-04-08T07:44:15;4.88;78.32
71082;SHT31;58740;50.672;18.690;2023-04-08T07:46:43;5.01;78.11
71082;SHT31;58740;50.672;18.690;2023-04-08T07:49:12;5.09;77.90
71082;SHT31;58740;50.672;18.690;2023-04-08T07:51:40;5.14;77.47
71082;SHT31;58740;50.672;18.690;2023-04-08T07:54:08;5.16;77.41
71082;SHT31;58740;50.672;18.690;2023-04-08T07:56:39;5.18;77.32
71082;SHT31;58740;50.672;18.690;2023-04-08T07:59:07;5.18;76.69
71082;SHT31;58740;50.672;18.690;2023-04-08T08:01:34;5.19;76.71
71082;SHT31;58740;50.672;18.690;2023-04-08T08:04:02;5.22;76.68
71082;SHT31;58740;50.672;18.690;2023-04-08T08:06:31;5.26;76.62
71082;SHT31;58740;50.672;18.690;2023-04-08T08:08:59;5.30;75.87
71082;SHT31;58740;50.672;18.690;2023-04-08T08:11:27;5.34;76.22
71082;SHT31;58740;50.672;18.690;2023-04-08T08:13:55;5.39;75.77
71082;SHT31;58740;50.672;18.690;2023-04-08T08:16:26;5.41;75.14
71082;SHT31;58740;50.672;18.690;2023-04-08T08:18:55;5.45;74.73
71082;SHT31;58740;50.672;18.690;2023-04-08T08:21:24;5.46;74.77
71082;SHT31;58740;50.672;18.690;2023-04-08T08:23:53;5.49;74.63
71082;SHT31;58740;50.672;18.690;2023-04-08T08:26:21;5.54;74.51
71082;SHT31;58740;50.672;18.690;2023-04-08T08:28:49;5.59;73.55
71082;SHT31;58740;50.672;18.690;2023-04-08T08:31:17;5.68;73.53
71082;SHT31;58740;50.672;18.690;2023-04-08T08:33:45;5.75;72.73
71082;SHT31;58740;50.672;18.690;2023-04-08T08:36:13;5.80;72.99
71082;SHT31;58740;50.672;18.690;2023-04-08T08:38:41;5.88;72.60
71082;SHT31;58740;50.672;18.690;2023-04-08T08:41:09;6.00;72.20
71082;SHT31;58740;50.672;18.690;2023-04-08T08:43:36;6.15;72.18
71082;SHT31;58740;50.672;18.690;2023-04-08T08:46:07;6.26;71.40
71082;SHT31;58740;50.672;18.690;2023-04-08T08:48:38;6.26;71.32
71082;SHT31;58740;50.672;18.690;2023-04-08T08:51:07;6.23;71.76
71082;SHT31;58740;50.672;18.690;2023-04-08T08:53:37;6.22;71.69
71082;SHT31;58740;50.672;18.690;2023-04-08T08:56:07;6.23;72.00
71082;SHT31;58740;50.672;18.690;2023-04-08T08:58:38;6.32;71.52
71082;SHT31;58740;50.672;18.690;2023-04-08T09:07:03;6.65;71.16
71082;SHT31;58740;50.672;18.690;2023-04-08T09:09:49;6.77;71.83
71082;SHT31;58740;50.672;18.690;2023-04-08T09:12:18;6.88;71.53
71082;SHT31;58740;50.672;18.690;2023-04-08T09:14:46;6.97;70.72
71082;SHT31;58740;50.672;18.690;2023-04-08T09:17:15;6.98;71.03
71082;SHT31;58740;50.672;18.690;2023-04-08T09:20:08;6.97;70.64
71082;SHT31;58740;50.672;18.690;2023-04-08T09:22:53;6.90;70.25
71082;SHT31;58740;50.672;18.690;2023-04-08T09:25:30;6.83;70.31
71082;SHT31;58740;50.672;18.690;2023-04-08T09:28:02;6.77;70.17
71082;SHT31;58740;50.672;18.690;2023-04-08T09:30:30;6.75;69.63
71082;SHT31;58740;50.672;18.690;2023-04-08T09:32:59;6.83;69.42
71082;SHT31;58740;50.672;18.690;2023-04-08T09:35:28;6.92;68.79
71082;SHT31;58740;50.672;18.690;2023-04-08T09:37:55;7.00;67.77
71082;SHT31;58740;50.672;18.690;2023-04-08T09:40:23;7.10;67.84
71082;SHT31;58740;50.672;18.690;2023-04-08T09:42:53;7.22;67.78
71082;SHT31;58740;50.672;18.690;2023-04-08T09:45:23;7.27;68.43
71082;SHT31;58740;50.672;18.690;2023-04-08T09:47:55;7.27;68.63
71082;SHT31;58740;50.672;18.690;2023-04-08T09:50:35;7.24;68.35
71082;SHT31;58740;50.672;18.690;2023-04-08T09:53:23;7.21;67.99
71082;SHT31;58740;50.672;18.690;2023-04-08T09:56:00;7.20;68.03
71082;SHT31;58740;50.672;18.690;2023-04-08T09:58:38;7.22;67.41
71082;SHT31;58740;50.672;18.690;2023-04-08T10:01:15;7.25;67.69
71082;SHT31;58740;50.672;18.690;2023-04-08T10:03:55;7.33;67.45
71082;SHT31;58740;50.672;18.690;2023-04-08T10:06:26;7.39;67.49
71082;SHT31;58740;50.672;18.690;2023-04-08T10:08:58;7.45;67.92
71082;SHT31;58740;50.672;18.690;2023-04-08T10:11:28;7.53;67.22
71082;SHT31;58740;50.672;18.690;2023-04-08T10:13:57;7.61;66.49
71082;SHT31;58740;50.672;18.690;2023-04-08T10:16:25;7.68;67.07
71082;SHT31;58740;50.672;18.690;2023-04-08T10:18:54;7.78;67.91
71082;SHT31;58740;50.672;18.690;2023-04-08T10:24:17;7.94;66.91
71082;SHT31;58740;50.672;18.690;2023-04-08T10:26:50;7.98;66.50
71082;SHT31;58740;50.672;18.690;2023-04-08T10:31:46;7.93;66.40
71082;SHT31;58740;50.672;18.690;2023-04-08T10:34:20;7.93;66.95
71082;SHT31;58740;50.672;18.690;2023-04-08T10:36:54;7.95;67.08
71082;SHT31;58740;50.672;18.690;2023-04-08T10:39:25;7.97;66.64
71082;SHT31;58740;50.672;18.690;2023-04-08T10:41:53;8.00;66.68
71082;SHT31;58740;50.672;18.690;2023-04-08T10:44:25;8.04;65.84
71082;SHT31;58740;50.672;18.690;2023-04-08T10:46:54;8.10;65.65
71082;SHT31;58740;50.672;18.690;2023-04-08T10:49:22;8.14;65.57
71082;SHT31;58740;50.672;18.690;2023-04-08T10:52:05;8.19;65.97
71082;SHT31;58740;50.672;18.690;2023-04-08T10:54:34;8.24;65.71
71082;SHT31;58740;50.672;18.690;2023-04-08T10:57:03;8.23;64.91
71082;SHT31;58740;50.672;18.690;2023-04-08T10:59:32;8.23;64.59
71082;SHT31;58740;50.672;18.690;2023-04-08T11:02:00;8.24;64.88
71082;SHT31;58740;50.672;18.690;2023-04-08T11:04:29;8.28;64.70
71082;SHT31;58740;50.672;18.690;2023-04-08T11:06:57;8.34;64.91
71082;SHT31;58740;50.672;18.690;2023-04-08T11:09:25;8.38;64.65
71082;SHT31;58740;50.672;18.690;2023-04-08T11:11:53;8.41;64.87
71082;SHT31;58740;50.672;18.690;2023-04-08T11:14:22;8.47;64.31
71082;SHT31;58740;50.672;18.690;2023-04-08T11:16:50;8.50;63.03
71082;SHT31;58740;50.672;18.690;2023-04-08T11:19:18;8.51;63.20
71082;SHT31;58740;50.672;18.690;2023-04-08T11:21:46;8.53;62.87
71082;SHT31;58740;50.672;18.690;2023-04-08T11:24:14;8.55;63.66
71082;SHT31;58740;50.672;18.690;2023-04-08T11:26:43;8.58;63.07
71082;SHT31;58740;50.672;18.690;2023-04-08T11:29:11;8.61;62.93
71082;SHT31;58740;50.672;18.690;2023-04-08T11:31:42;8.66;63.00
71082;SHT31;58740;50.672;18.690;2023-04-08T11:34:10;8.71;62.16
71082;SHT31;58740;50.672;18.690;2023-04-08T11:36:41;8.73;62.51
71082;SHT31;58740;50.672;18.690;2023-04-08T11:39:09;8.78;62.40
71082;SHT31;58740;50.672;18.690;2023-04-08T11:41:39;8.82;62.47
71082;SHT31;58740;50.672;18.690;2023-04-08T11:44:07;8.84;61.72
71082;SHT31;58740;50.672;18.690;2023-04-08T11:46:35;8.84;61.29
71082;SHT31;58740;50.672;18.690;2023-04-08T11:49:04;8.84;61.15
71082;SHT31;58740;50.672;18.690;2023-04-08T11:51:35;8.83;60.77
71082;SHT31;58740;50.672;18.690;2023-04-08T11:54:26;8.82;60.60
71082;SHT31;58740;50.672;18.690;2023-04-08T11:56:55;8.83;61.52
71082;SHT31;58740;50.672;18.690;2023-04-08T11:59:24;8.82;61.63
71082;SHT31;58740;50.672;18.690;2023-04-08T12:01:55;8.78;60.09
71082;SHT31;58740;50.672;18.690;2023-04-08T12:04:24;8.78;60.82
71082;SHT31;58740;50.672;18.690;2023-04-08T12:06:52;8.79;61.45
71082;SHT31;58740;50.672;18.690;2023-04-08T12:09:21;8.80;60.96
71082;SHT31;58740;50.672;18.690;2023-04-08T12:11:49;8.78;60.80
71082;SHT31;58740;50.672;18.690;2023-04-08T12:14:17;8.76;60.55
71082;SHT31;58740;50.672;18.690;2023-04-08T12:16:44;8.75;60.59
71082;SHT31;58740;50.672;18.690;2023-04-08T12:19:12;8.74;60.22
71082;SHT31;58740;50.672;18.690;2023-04-08T12:21:40;8.72;60.71
71082;SHT31;58740;50.672;18.690;2023-04-08T12:24:07;8.70;60.79
71082;SHT31;58740;50.672;18.690;2023-04-08T12:26:35;8.66;60.74
71082;SHT31;58740;50.672;18.690;2023-04-08T12:29:03;8.61;61.19
71082;SHT31;58740;50.672;18.690;2023-04-08T12:31:30;8.60;61.77
71082;SHT31;58740;50.672;18.690;2023-04-08T12:33:58;8.57;61.57
71082;SHT31;58740;50.672;18.690;2023-04-08T12:36:26;8.55;61.82
71082;SHT31;58740;50.672;18.690;2023-04-08T12:38:54;8.55;61.74
71082;SHT31;58740;50.672;18.690;2023-04-08T12:41:22;8.55;62.20
71082;SHT31;58740;50.672;18.690;2023-04-08T12:43:50;8.55;62.09
71082;SHT31;58740;50.672;18.690;2023-04-08T12:46:18;8.55;62.39
71082;SHT31;58740;50.672;18.690;2023-04-08T12:48:45;8.56;62.74
71082;SHT31;58740;50.672;18.690;2023-04-08T12:51:15;8.55;62.89
71082;SHT31;58740;50.672;18.690;2023-04-08T12:53:42;8.53;62.92
71082;SHT31;58740;50.672;18.690;2023-04-08T12:56:10;8.52;63.66
71082;SHT31;58740;50.672;18.690;2023-04-08T12:58:38;8.53;64.08
71082;SHT31;58740;50.672;18.690;2023-04-08T13:01:06;8.53;64.50
71082;SHT31;58740;50.672;18.690;2023-04-08T13:03:34;8.55;64.78
71082;SHT31;58740;50.672;18.690;2023-04-08T13:06:02;8.58;64.83
71082;SHT31;58740;50.672;18.690;2023-04-08T13:08:30;8.60;64.68
71082;SHT31;58740;50.672;18.690;2023-04-08T13:10:58;8.60;64.81
71082;SHT31;58740;50.672;18.690;2023-04-08T13:13:26;8.59;65.06
71082;SHT31;58740;50.672;18.690;2023-04-08T13:15:53;8.58;65.54
71082;SHT31;58740;50.672;18.690;2023-04-08T13:18:21;8.60;65.56
71082;SHT31;58740;50.672;18.690;2023-04-08T13:20:49;8.63;65.65
71082;SHT31;58740;50.672;18.690;2023-04-08T13:23:17;8.63;65.87
71082;SHT31;58740;50.672;18.690;2023-04-08T13:25:44;8.66;65.81
71082;SHT31;58740;50.672;18.690;2023-04-08T13:28:12;8.69;65.97
71082;SHT31;58740;50.672;18.690;2023-04-08T13:30:40;8.72;65.94
71082;SHT31;58740;50.672;18.690;2023-04-08T13:33:08;8.73;65.56
71082;SHT31;58740;50.672;18.690;2023-04-08T13:35:36;8.72;65.65
71082;SHT31;58740;50.672;18.690;2023-04-08T13:38:04;8.69;65.86
71082;SHT31;58740;50.672;18.690;2023-04-08T13:40:32;8.69;66.01
71082;SHT31;58740;50.672;18.690;2023-04-08T13:43:00;8.67;65.99
71082;SHT31;58740;50.672;18.690;2023-04-08T13:45:28;8.69;65.93
71082;SHT31;58740;50.672;18.690;2023-04-08T13:47:55;8.67;66.19
71082;SHT31;58740;50.672;18.690;2023-04-08T13:50:24;8.67;66.30
71082;SHT31;58740;50.672;18.690;2023-04-08T13:52:52;8.67;66.37
71082;SHT31;58740;50.672;18.690;2023-04-08T13:55:20;8.69;66.55
71082;SHT31;58740;50.672;18.690;2023-04-08T13:57:48;8.72;66.73
71082;SHT31;58740;50.672;18.690;2023-04-08T14:00:17;8.74;66.82
71082;SHT31;58740;50.672;18.690;2023-04-08T14:02:44;8.77;66.80
71082;SHT31;58740;50.672;18.690;2023-04-08T14:05:12;8.78;66.59
71082;SHT31;58740;50.672;18.690;2023-04-08T14:07:40;8.75;66.71
71082;SHT31;58740;50.672;18.690;2023-04-08T14:10:08;8.76;67.01
71082;SHT31;58740;50.672;18.690;2023-04-08T14:12:36;8.76;67.07
71082;SHT31;58740;50.672;18.690;2023-04-08T14:15:04;8.76;67.14
71082;SHT31;58740;50.672;18.690;2023-04-08T14:17:32;8.78;67.05
71082;SHT31;58740;50.672;18.690;2023-04-08T14:20:02;8.76;67.11
71082;SHT31;58740;50.672;18.690;2023-04-08T14:22:32;8.77;67.06
71082;SHT31;58740;50.672;18.690;2023-04-08T14:25:00;8.78;67.01
71082;SHT31;58740;50.672;18.690;2023-04-08T14:27:28;8.80;67.17
71082;SHT31;58740;50.672;18.690;2023-04-08T14:29:55;8.83;67.19
71082;SHT31;58740;50.672;18.690;2023-04-08T14:32:23;8.83;67.12
71082;SHT31;58740;50.672;18.690;2023-04-08T14:34:51;8.84;67.10
71082;SHT31;58740;50.672;18.690;2023-04-08T14:37:19;8.83;67.07
71082;SHT31;58740;50.672;18.690;2023-04-08T14:39:46;8.84;67.24
71082;SHT31;58740;50.672;18.690;2023-04-08T14:42:14;8.83;67.28
71082;SHT31;58740;50.672;18.690;2023-04-08T14:44:44;8.84;67.36
71082;SHT31;58740;50.672;18.690;2023-04-08T14:47:12;8.86;67.40
71082;SHT31;58740;50.672;18.690;2023-04-08T14:49:39;8.89;67.32
71082;SHT31;58740;50.672;18.690;2023-04-08T14:52:07;8.93;67.24
71082;SHT31;58740;50.672;18.690;2023-04-08T14:54:35;8.96;67.16
71082;SHT31;58740;50.672;18.690;2023-04-08T14:57:03;8.98;66.82
71082;SHT31;58740;50.672;18.690;2023-04-08T14:59:30;8.99;67.20
71082;SHT31;58740;50.672;18.690;2023-04-08T15:01:58;9.00;67.17
71082;SHT31;58740;50.672;18.690;2023-04-08T15:04:26;9.01;66.82
71082;SHT31;58740;50.672;18.690;2023-04-08T15:06:54;9.00;66.85
71082;SHT31;58740;50.672;18.690;2023-04-08T15:09:22;8.98;66.95
71082;SHT31;58740;50.672;18.690;2023-04-08T15:11:50;8.96;67.11
71082;SHT31;58740;50.672;18.690;2023-04-08T15:14:18;8.95;67.20
71082;SHT31;58740;50.672;18.690;2023-04-08T15:16:45;8.96;67.01
71082;SHT31;58740;50.672;18.690;2023-04-08T15:19:13;8.97;67.10
71082;SHT31;58740;50.672;18.690;2023-04-08T15:21:41;8.96;67.16
71082;SHT31;58740;50.672;18.690;2023-04-08T15:24:08;8.96;66.89
71082;SHT31;58740;50.672;18.690;2023-04-08T15:26:36;8.96;67.07
71082;SHT31;58740;50.672;18.690;2023-04-08T15:29:04;8.95;67.19
71082;SHT31;58740;50.672;18.690;2023-04-08T15:31:31;8.92;67.10
71082;SHT31;58740;50.672;18.690;2023-04-08T15:34:01;8.90;67.14
71082;SHT31;58740;50.672;18.690;2023-04-08T15:36:29;8.87;67.25
71082;SHT31;58740;50.672;18.690;2023-04-08T15:38:57;8.84;67.26
71082;SHT31;58740;50.672;18.690;2023-04-08T15:41:25;8.82;67.37
71082;SHT31;58740;50.672;18.690;2023-04-08T15:43:53;8.81;67.57
71082;SHT31;58740;50.672;18.690;2023-04-08T15:46:21;8.80;67.80
71082;SHT31;58740;50.672;18.690;2023-04-08T15:48:49;8.80;68.04
71082;SHT31;58740;50.672;18.690;2023-04-08T15:51:18;8.82;68.11
71082;SHT31;58740;50.672;18.690;2023-04-08T15:53:46;8.83;68.18
71082;SHT31;58740;50.672;18.690;2023-04-08T15:56:16;8.82;68.04